sensor_id;sensor_type;location;lat;lon;timestamp;pressure;altitude;pressure_sealevel;temperature;humidity
37972;BME280;23794;48.234;8.344;2023-08-17T00:01:16;94519.91;;;16.34;87.59
37972;BME280;23794;48.234;8.344;2023-08-17T00:03:43;94515.19;;;16.35;88.32
37972;BME280;23794;48.234;8.344;2023-08-17T00:06:09;94522.69;;;16.34;88.51
37972;BME280;23794;48.234;8.344;2023-08-17T00:08:36;94524.50;;;16.24;89.01
37972;BME280;23794;48.234;8.344;2023-08-17T00:11:02;94521.72;;;16.24;88.44
37972;BME280;23794;48.234;8.344;2023-08-17T00:13:30;94521.28;;;16.26;88.47
37972;BME280;23794;48.234;8.344;2023-08-17T00:15:56;94519.75;;;16.25;88.99
37972;BME280;23794;48.234;8.344;2023-08-17T00:18:23;94513.59;;;16.17;88.20
37972;BME280;23794;48.234;8.344;2023-08-17T00:20:50;94520.09;;;16.27;87.67
37972;BME280;23794;48.234;8.344;2023-08-17T00:23:16;94520.09;;;16.27;87.23
37972;BME280;23794;48.234;8.344;2023-08-17T00:25:43;94523.72;;;16.24;86.75
37972;BME280;23794;48.234;8.344;2023-08-17T00:28:09;94527.78;;;16.19;87.66
37972;BME280;23794;48.234;8.344;2023-08-17T00:30:37;94518.38;;;16.17;87.70
37972;BME280;23794;48.234;8.344;2023-08-17T00:33:04;94518.19;;;16.24;86.82
37972;BME280;23794;48.234;8.344;2023-08-17T00:35:31;94509.28;;;16.16;88.12
37972;BME280;23794;48.234;8.344;2023-08-17T00:37:59;94515.75;;;16.09;89.08
37972;BME280;23794;48.234;8.344;2023-08-17T00:40:26;94509.81;;;16.11;88.95
37972;BME280;23794;48.234;8.344;2023-08-17T00:42:53;94503.00;;;16.16;87.67
37972;BME280;23794;48.234;8.344;2023-08-17T00:45:19;94499.09;;;16.13;87.65
37972;BME280;23794;48.234;8.344;2023-08-17T00:47:47;94507.81;;;16.11;87.51
37972;BME280;23794;48.234;8.344;2023-08-17T00:50:14;94500.91;;;16.20;86.26
37972;BME280;23794;48.234;8.344;2023-08-17T00:52:42;94499.19;;;16.09;87.63
37972;BME280;23794;48.234;8.344;2023-08-17T00:55:09;94487.50;;;16.02;88.12
37972;BME280;23794;48.234;8.344;2023-08-17T00:57:37;94495.78;;;16.02;87.96
37972;BME280;23794;48.234;8.344;2023-08-17T01:00:05;94500.31;;;15.92;88.93
37972;BME280;23794;48.234;8.344;2023-08-17T01:02:32;94502.31;;;15.91;88.52
37972;BME280;23794;48.234;8.344;2023-08-17T01:05:00;94510.97;;;15.93;88.27
37972;BME280;23794;48.234;8.344;2023-08-17T01:07:27;94507.38;;;15.97;88.19
37972;BME280;23794;48.234;8.344;2023-08-17T01:09:54;94508.22;;;15.93;88.39
37972;BME280;23794;48.234;8.344;2023-08-17T01:12:31;94510.47;;;15.99;87.67
37972;BME280;23794;48.234;8.344;2023-08-17T01:17:47;94510.97;;;15.93;88.36
37972;BME280;23794;48.234;8.344;2023-08-17T01:20:16;94510.69;;;15.88;89.31
37972;BME280;23794;48.234;8.344;2023-08-17T01:22:45;94507.66;;;15.82;88.73
37972;BME280;23794;48.234;8.344;2023-08-17T01:25:14;94504.81;;;15.86;88.77
37972;BME280;23794;48.234;8.344;2023-08-17T01:27:45;94499.97;;;15.90;88.08
37972;BME280;23794;48.234;8.344;2023-08-17T01:30:16;94503.88;;;15.92;87.60
37972;BME280;23794;48.234;8.344;2023-08-17T01:32:54;94506.69;;;15.89;88.24
37972;BME280;23794;48.234;8.344;2023-08-17T01:35:45;94510.13;;;15.97;87.85
37972;BME280;23794;48.234;8.344;2023-08-17T01:38:17;94507.06;;;15.91;88.44
37972;BME280;23794;48.234;8.344;2023-08-17T01:40:48;94504.44;;;15.84;88.40
37972;BME280;23794;48.234;8.344;2023-08-17T01:43:16;94510.34;;;15.86;88.27
37972;BME280;23794;48.234;8.344;2023-08-17T01:45:43;94507.84;;;15.91;87.87
37972;BME280;23794;48.234;8.344;2023-08-17T01:48:10;94516.84;;;15.95;87.85
37972;BME280;23794;48.234;8.344;2023-08-17T01:50:37;94514.09;;;15.95;87.17
37972;BME280;23794;48.234;8.344;2023-08-17T01:53:03;94512.59;;;15.91;86.93
37972;BME280;23794;48.234;8.344;2023-08-17T01:55:32;94516.22;;;15.88;87.57
37972;BME280;23794;48.234;8.344;2023-08-17T01:57:58;94517.69;;;15.92;88.01
37972;BME280;23794;48.234;8.344;2023-08-17T02:00:25;94523.72;;;15.87;88.55
37972;BME280;23794;48.234;8.344;2023-08-17T02:02:52;94520.94;;;15.87;88.01
37972;BME280;23794;48.234;8.344;2023-08-17T02:05:18;94521.03;;;15.84;87.93
37972;BME280;23794;48.234;8.344;2023-08-17T02:07:45;94516.97;;;15.88;87.57
37972;BME280;23794;48.234;8.344;2023-08-17T02:10:12;94518.78;;;15.78;88.45
37972;BME280;23794;48.234;8.344;2023-08-17T02:12:38;94513.66;;;15.77;87.57
37972;BME280;23794;48.234;8.344;2023-08-17T02:15:05;94516.34;;;15.80;87.59
37972;BME280;23794;48.234;8.344;2023-08-17T02:17:32;94513.25;;;15.78;88.26
37972;BME280;23794;48.234;8.344;2023-08-17T02:19:59;94507.00;;;15.74;88.55
37972;BME280;23794;48.234;8.344;2023-08-17T02:22:25;94499.72;;;15.84;87.66
37972;BME280;23794;48.234;8.344;2023-08-17T02:24:54;94501.25;;;15.85;87.19
37972;BME280;23794;48.234;8.344;2023-08-17T02:27:21;94493.72;;;15.69;87.33
37972;BME280;23794;48.234;8.344;2023-08-17T02:29:48;94500.88;;;15.67;88.32
37972;BME280;23794;48.234;8.344;2023-08-17T02:32:14;94501.25;;;15.69;88.84
37972;BME280;23794;48.234;8.344;2023-08-17T02:34:41;94495.28;;;15.70;89.65
37972;BME280;23794;48.234;8.344;2023-08-17T02:37:08;94493.78;;;15.66;89.79
37972;BME280;23794;48.234;8.344;2023-08-17T02:39:34;94498.81;;;15.71;89.24
37972;BME280;23794;48.234;8.344;2023-08-17T02:42:01;94493.28;;;15.71;89.40
37972;BME280;23794;48.234;8.344;2023-08-17T02:44:30;94488.19;;;15.69;88.42
37972;BME280;23794;48.234;8.344;2023-08-17T02:46:56;94490.28;;;15.65;87.68
37972;BME280;23794;48.234;8.344;2023-08-17T02:49:23;94488.47;;;15.75;87.63
37972;BME280;23794;48.234;8.344;2023-08-17T02:51:50;94475.50;;;15.72;88.51
37972;BME280;23794;48.234;8.344;2023-08-17T02:54:16;94481.84;;;15.72;89.01
37972;BME280;23794;48.234;8.344;2023-08-17T02:56:43;94481.13;;;15.68;88.51
37972;BME280;23794;48.234;8.344;2023-08-17T02:59:09;94466.38;;;15.75;87.77
37972;BME280;23794;48.234;8.344;2023-08-17T03:01:36;94468.88;;;15.69;87.54
37972;BME280;23794;48.234;8.344;2023-08-17T03:04:03;94471.91;;;15.75;87.72
37972;BME280;23794;48.234;8.344;2023-08-17T03:06:29;94458.19;;;15.71;88.85
37972;BME280;23794;48.234;8.344;2023-08-17T03:08:56;94468.78;;;15.73;87.95
37972;BME280;23794;48.234;8.344;2023-08-17T03:11:22;94454.22;;;15.72;88.37
37972;BME280;23794;48.234;8.344;2023-08-17T03:13:49;94458.19;;;15.71;88.78
37972;BME280;23794;48.234;8.344;2023-08-17T03:16:16;94450.94;;;15.77;88.99
37972;BME280;23794;48.234;8.344;2023-08-17T03:18:43;94447.31;;;15.80;88.65
37972;BME280;23794;48.234;8.344;2023-08-17T03:21:11;94451.94;;;15.67;87.50
37972;BME280;23794;48.234;8.344;2023-08-17T03:23:38;94451.25;;;15.63;87.56
37972;BME280;23794;48.234;8.344;2023-08-17T03:26:05;94449.97;;;15.68;86.79
37972;BME280;23794;48.234;8.344;2023-08-17T03:28:31;94450.06;;;15.64;87.39
37972;BME280;23794;48.234;8.344;2023-08-17T03:30:58;94446.56;;;15.60;87.87
37972;BME280;23794;48.234;8.344;2023-08-17T03:33:24;94454.88;;;15.60;88.95
37972;BME280;23794;48.234;8.344;2023-08-17T03:35:51;94448.13;;;15.61;89.08
37972;BME280;23794;48.234;8.344;2023-08-17T03:38:18;94447.09;;;15.55;89.82
37972;BME280;23794;48.234;8.344;2023-08-17T03:40:48;94454.50;;;15.58;89.36
37972;BME280;23794;48.234;8.344;2023-08-17T03:43:15;94441.94;;;15.57;88.09
37972;BME280;23794;48.234;8.344;2023-08-17T03:45:42;94442.00;;;15.53;87.88
37972;BME280;23794;48.234;8.344;2023-08-17T03:48:09;94440.78;;;15.54;88.24
37972;BME280;23794;48.234;8.344;2023-08-17T03:50:36;94447.94;;;15.52;88.45
37972;BME280;23794;48.234;8.344;2023-08-17T03:53:04;94445.53;;;15.54;88.92
37972;BME280;23794;48.234;8.344;2023-08-17T03:55:31;94454.19;;;15.56;89.03
37972;BME280;23794;48.234;8.344;2023-08-17T03:57:57;94447.59;;;15.50;89.20
37972;BME280;23794;48.234;8.344;2023-08-17T04:00:24;94451.56;;;15.48;88.72
37972;BME280;23794;48.234;8.344;2023-08-17T04:02:56;94459.13;;;15.44;87.94
37972;BME280;23794;48.234;8.344;2023-08-17T04:05:23;94460.75;;;15.42;87.83
37972;BME280;23794;48.234;8.344;2023-08-17T04:07:49;94463.81;;;15.47;88.23
37972;BME280;23794;48.234;8.344;2023-08-17T04:10:16;94468.19;;;15.45;88.20
37972;BME280;23794;48.234;8.344;2023-08-17T04:12:43;94461.88;;;15.44;88.72
37972;BME280;23794;48.234;8.344;2023-08-17T04:15:09;94465.00;;;15.46;89.09
37972;BME280;23794;48.234;8.344;2023-08-17T04:17:36;94460.53;;;15.53;89.21
37972;BME280;23794;48.234;8.344;2023-08-17T04:20:03;94457.84;;;15.49;88.70
37972;BME280;23794;48.234;8.344;2023-08-17T04:22:33;94461.56;;;15.42;88.52
37972;BME280;23794;48.234;8.344;2023-08-17T04:24:59;94465.94;;;15.40;88.56
37972;BME280;23794;48.234;8.344;2023-08-17T04:27:26;94454.63;;;15.34;88.96
37972;BME280;23794;48.234;8.344;2023-08-17T04:29:53;94463.25;;;15.36;88.72
37972;BME280;23794;48.234;8.344;2023-08-17T04:32:20;94475.06;;;15.37;88.97
37972;BME280;23794;48.234;8.344;2023-08-17T04:34:47;94466.72;;;15.40;88.21
37972;BME280;23794;48.234;8.344;2023-08-17T04:37:15;94476.47;;;15.45;87.80
37972;BME280;23794;48.234;8.344;2023-08-17T04:39:42;94467.41;;;15.44;88.00
37972;BME280;23794;48.234;8.344;2023-08-17T04:42:15;94470.97;;;15.45;88.39
37972;BME280;23794;48.234;8.344;2023-08-17T04:44:43;94463.16;;;15.40;89.16
37972;BME280;23794;48.234;8.344;2023-08-17T04:47:10;94465.09;;;15.43;88.91
37972;BME280;23794;48.234;8.344;2023-08-17T04:49:37;94466.28;;;15.42;89.05
37972;BME280;23794;48.234;8.344;2023-08-17T04:52:04;94468.00;;;15.36;89.34
37972;BME280;23794;48.234;8.344;2023-08-17T04:54:31;94476.63;;;15.38;89.18
37972;BME280;23794;48.234;8.344;2023-08-17T04:56:58;94474.50;;;15.45;88.92
37972;BME280;23794;48.234;8.344;2023-08-17T04:59:24;94474.19;;;15.40;88.66
37972;BME280;23794;48.234;8.344;2023-08-17T05:01:51;94467.00;;;15.46;88.45
37972;BME280;23794;48.234;8.344;2023-08-17T05:04:18;94465.44;;;15.45;88.61
37972;BME280;23794;48.234;8.344;2023-08-17T05:06:45;94468.97;;;15.45;88.88
37972;BME280;23794;48.234;8.344;2023-08-17T05:09:11;94468.63;;;15.43;89.29
37972;BME280;23794;48.234;8.344;2023-08-17T05:11:39;94466.84;;;15.53;88.52
37972;BME280;23794;48.234;8.344;2023-08-17T05:14:06;94467.25;;;15.52;88.87
37972;BME280;23794;48.234;8.344;2023-08-17T05:16:33;94468.38;;;15.54;88.65
37972;BME280;23794;48.234;8.344;2023-08-17T05:19:00;94468.94;;;15.66;88.15
37972;BME280;23794;48.234;8.344;2023-08-17T05:21:27;94470.34;;;15.74;87.11
37972;BME280;23794;48.234;8.344;2023-08-17T05:23:54;94467.94;;;15.76;87.66
37972;BME280;23794;48.234;8.344;2023-08-17T05:26:21;94473.88;;;15.74;88.45
37972;BME280;23794;48.234;8.344;2023-08-17T05:28:48;94474.50;;;15.82;88.07
37972;BME280;23794;48.234;8.344;2023-08-17T05:31:15;94487.38;;;15.89;87.76
37972;BME280;23794;48.234;8.344;2023-08-17T05:33:45;94484.97;;;15.91;87.33
37972;BME280;23794;48.234;8.344;2023-08-17T05:36:13;94486.25;;;15.86;86.89
37972;BME280;23794;48.234;8.344;2023-08-17T05:38:40;94483.91;;;15.85;86.87
37972;BME280;23794;48.234;8.344;2023-08-17T05:41:07;94490.44;;;15.94;86.53
37972;BME280;23794;48.234;8.344;2023-08-17T05:43:34;94489.22;;;15.95;86.40
37972;BME280;23794;48.234;8.344;2023-08-17T05:46:00;94488.47;;;15.95;86.51
37972;BME280;23794;48.234;8.344;2023-08-17T05:48:27;94490.00;;;15.96;86.22
37972;BME280;23794;48.234;8.344;2023-08-17T05:50:55;94485.94;;;16.01;85.97
37972;BME280;23794;48.234;8.344;2023-08-17T05:53:22;94483.25;;;15.97;86.94
37972;BME280;23794;48.234;8.344;2023-08-17T05:55:50;94485.63;;;15.99;87.35
37972;BME280;23794;48.234;8.344;2023-08-17T05:58:16;94478.44;;;16.01;87.65
37972;BME280;23794;48.234;8.344;2023-08-17T06:00:43;94494.78;;;16.12;88.15
37972;BME280;23794;48.234;8.344;2023-08-17T06:03:10;94485.53;;;16.19;87.75
37972;BME280;23794;48.234;8.344;2023-08-17T06:05:37;94488.47;;;16.28;87.86
37972;BME280;23794;48.234;8.344;2023-08-17T06:08:04;94481.13;;;16.38;87.15
37972;BME280;23794;48.234;8.344;2023-08-17T06:10:30;94476.41;;;16.38;87.37
37972;BME280;23794;48.234;8.344;2023-08-17T06:12:57;94478.19;;;16.45;87.17
37972;BME280;23794;48.234;8.344;2023-08-17T06:15:24;94478.44;;;16.51;87.21
37972;BME280;23794;48.234;8.344;2023-08-17T06:17:51;94479.66;;;16.66;87.19
37972;BME280;23794;48.234;8.344;2023-08-17T06:20:18;94476.19;;;16.79;87.00
37972;BME280;23794;48.234;8.344;2023-08-17T06:22:47;94481.09;;;16.87;86.79
37972;BME280;23794;48.234;8.344;2023-08-17T06:25:14;94484.38;;;16.99;86.76
37972;BME280;23794;48.234;8.344;2023-08-17T06:27:41;94485.97;;;17.13;85.87
37972;BME280;23794;48.234;8.344;2023-08-17T06:30:09;94488.66;;;17.16;85.88
37972;BME280;23794;48.234;8.344;2023-08-17T06:32:35;94485.78;;;17.20;85.82
37972;BME280;23794;48.234;8.344;2023-08-17T06:35:02;94478.41;;;17.30;85.73
37972;BME280;23794;48.234;8.344;2023-08-17T06:37:29;94480.84;;;17.41;85.70
37972;BME280;23794;48.234;8.344;2023-08-17T06:39:55;94481.56;;;17.45;85.41
37972;BME280;23794;48.234;8.344;2023-08-17T06:42:22;94480.91;;;17.53;85.01
37972;BME280;23794;48.234;8.344;2023-08-17T06:44:49;94483.47;;;17.61;85.33
37972;BME280;23794;48.234;8.344;2023-08-17T06:47:15;94481.81;;;17.76;84.91
37972;BME280;23794;48.234;8.344;2023-08-17T06:49:42;94489.28;;;17.92;85.29
37972;BME280;23794;48.234;8.344;2023-08-17T06:52:08;94489.75;;;18.04;84.91
37972;BME280;23794;48.234;8.344;2023-08-17T06:54:35;94496.06;;;18.17;84.48
37972;BME280;23794;48.234;8.344;2023-08-17T06:57:02;94495.41;;;18.26;84.44
37972;BME280;23794;48.234;8.344;2023-08-17T06:59:28;94485.19;;;18.36;83.78
37972;BME280;23794;48.234;8.344;2023-08-17T07:01:56;94495.59;;;18.44;83.38
37972;BME280;23794;48.234;8.344;2023-08-17T07:04:23;94491.16;;;18.60;83.18
37972;BME280;23794;48.234;8.344;2023-08-17T07:06:50;94488.47;;;18.69;82.98
37972;BME280;23794;48.234;8.344;2023-08-17T07:09:16;94495.53;;;18.83;82.82
37972;BME280;23794;48.234;8.344;2023-08-17T07:11:43;94484.31;;;18.87;82.88
37972;BME280;23794;48.234;8.344;2023-08-17T07:14:10;94489.53;;;18.98;83.38
37972;BME280;23794;48.234;8.344;2023-08-17T07:16:36;94496.69;;;19.08;83.17
37972;BME280;23794;48.234;8.344;2023-08-17T07:19:03;94486.25;;;19.12;83.49
37972;BME280;23794;48.234;8.344;2023-08-17T07:21:30;94489.63;;;19.29;83.35
37972;BME280;23794;48.234;8.344;2023-08-17T07:23:57;94496.97;;;19.45;83.47
37972;BME280;23794;48.234;8.344;2023-08-17T07:26:24;94494.78;;;19.62;82.97
37972;BME280;23794;48.234;8.344;2023-08-17T07:28:50;94491.19;;;19.74;82.73
37972;BME280;23794;48.234;8.344;2023-08-17T07:31:17;94498.03;;;19.83;82.54
37972;BME280;23794;48.234;8.344;2023-08-17T07:33:43;94492.69;;;19.98;82.15
37972;BME280;23794;48.234;8.344;2023-08-17T07:36:10;94496.94;;;20.12;82.11
37972;BME280;23794;48.234;8.344;2023-08-17T07:38:37;94503.81;;;20.29;81.60
37972;BME280;23794;48.234;8.344;2023-08-17T07:41:03;94502.16;;;20.41;81.36
37972;BME280;23794;48.234;8.344;2023-08-17T07:43:30;94493.97;;;20.47;81.08
37972;BME280;23794;48.234;8.344;2023-08-17T07:45:57;94503.31;;;20.62;81.22
37972;BME280;23794;48.234;8.344;2023-08-17T07:48:23;94497.94;;;20.77;80.00
37972;BME280;23794;48.234;8.344;2023-08-17T07:50:51;94502.00;;;20.86;79.24
37972;BME280;23794;48.234;8.344;2023-08-17T07:53:19;94497.34;;;20.92;78.68
37972;BME280;23794;48.234;8.344;2023-08-17T07:55:45;94499.81;;;20.90;76.98
37972;BME280;23794;48.234;8.344;2023-08-17T07:58:12;94498.44;;;21.04;78.55
37972;BME280;23794;48.234;8.344;2023-08-17T08:00:39;94496.13;;;21.21;78.21
37972;BME280;23794;48.234;8.344;2023-08-17T08:03:06;94493.50;;;21.36;78.66
37972;BME280;23794;48.234;8.344;2023-08-17T08:05:32;94487.78;;;21.48;78.68
37972;BME280;23794;48.234;8.344;2023-08-17T08:07:59;94490.72;;;21.63;78.85
37972;BME280;23794;48.234;8.344;2023-08-17T08:10:27;94490.53;;;21.76;79.01
37972;BME280;23794;48.234;8.344;2023-08-17T08:12:54;94491.88;;;21.90;78.35
37972;BME280;23794;48.234;8.344;2023-08-17T08:15:21;94487.06;;;22.00;77.68
37972;BME280;23794;48.234;8.344;2023-08-17T08:17:48;94482.75;;;21.99;77.68
37972;BME280;23794;48.234;8.344;2023-08-17T08:20:14;94490.72;;;22.16;77.56
37972;BME280;23794;48.234;8.344;2023-08-17T08:22:41;94484.97;;;22.29;76.80
37972;BME280;23794;48.234;8.344;2023-08-17T08:25:08;94481.06;;;22.35;76.94
37972;BME280;23794;48.234;8.344;2023-08-17T08:27:34;94483.38;;;22.37;76.69
37972;BME280;23794;48.234;8.344;2023-08-17T08:30:01;94489.09;;;22.42;76.67
37972;BME280;23794;48.234;8.344;2023-08-17T08:32:27;94483.69;;;22.39;76.79
37972;BME280;23794;48.234;8.344;2023-08-17T08:34:56;94487.56;;;22.41;76.11
37972;BME280;23794;48.234;8.344;2023-08-17T08:37:23;94482.69;;;22.51;76.14
37972;BME280;23794;48.234;8.344;2023-08-17T08:39:55;94477.13;;;22.51;74.68
37972;BME280;23794;48.234;8.344;2023-08-17T08:42:24;94482.00;;;22.66;75.13
37972;BME280;23794;48.234;8.344;2023-08-17T08:44:51;94487.31;;;22.88;75.15
37972;BME280;23794;48.234;8.344;2023-08-17T08:47:18;94494.31;;;23.08;74.90
37972;BME280;23794;48.234;8.344;2023-08-17T08:50:01;94493.50;;;23.16;74.17
37972;BME280;23794;48.234;8.344;2023-08-17T08:52:36;94493.22;;;23.29;74.02
37972;BME280;23794;48.234;8.344;2023-08-17T08:55:17;94501.41;;;23.57;74.08
37972;BME280;23794;48.234;8.344;2023-08-17T08:57:44;94489.09;;;23.79;73.92
37972;BME280;23794;48.234;8.344;2023-08-17T09:00:18;94491.13;;;23.93;72.66
37972;BME280;23794;48.234;8.344;2023-08-17T09:02:45;94487.72;;;24.19;71.09
37972;BME280;23794;48.234;8.344;2023-08-17T09:05:12;94497.09;;;24.16;70.42
37972;BME280;23794;48.234;8.344;2023-08-17T09:07:42;94490.16;;;24.26;69.41
37972;BME280;23794;48.234;8.344;2023-08-17T09:10:10;94485.78;;;24.40;70.05
37972;BME280;23794;48.234;8.344;2023-08-17T09:12:37;94488.88;;;24.42;69.03
37972;BME280;23794;48.234;8.344;2023-08-17T09:15:07;94476.91;;;24.27;69.30
37972;BME280;23794;48.234;8.344;2023-08-17T09:17:34;94482.25;;;24.10;69.98
37972;BME280;23794;48.234;8.344;2023-08-17T09:20:01;94483.09;;;24.16;71.41
37972;BME280;23794;48.234;8.344;2023-08-17T09:22:38;94482.00;;;24.28;70.04
37972;BME280;23794;48.234;8.344;2023-08-17T09:25:06;94483.47;;;24.39;70.66
37972;BME280;23794;48.234;8.344;2023-08-17T09:27:33;94473.78;;;24.55;71.08
37972;BME280;23794;48.234;8.344;2023-08-17T09:30:06;94463.44;;;24.61;71.27
37972;BME280;23794;48.234;8.344;2023-08-17T09:32:33;94472.19;;;24.69;70.24
37972;BME280;23794;48.234;8.344;2023-08-17T09:35:04;94475.75;;;24.69;66.30
37972;BME280;23794;48.234;8.344;2023-08-17T09:37:32;94464.09;;;24.71;63.93
37972;BME280;23794;48.234;8.344;2023-08-17T09:40:00;94475.44;;;24.82;65.61
37972;BME280;23794;48.234;8.344;2023-08-17T09:42:26;94462.75;;;24.87;66.98
37972;BME280;23794;48.234;8.344;2023-08-17T09:44:54;94453.94;;;24.94;68.11
37972;BME280;23794;48.234;8.344;2023-08-17T09:47:22;94455.94;;;25.08;66.12
37972;BME280;23794;48.234;8.344;2023-08-17T09:49:51;94460.13;;;25.19;66.06
37972;BME280;23794;48.234;8.344;2023-08-17T09:52:22;94445.44;;;25.50;66.76
37972;BME280;23794;48.234;8.344;2023-08-17T09:54:52;94454.41;;;25.54;65.26
37972;BME280;23794;48.234;8.344;2023-08-17T09:57:19;94456.34;;;25.69;63.20
37972;BME280;23794;48.234;8.344;2023-08-17T09:59:48;94449.53;;;25.76;63.84
37972;BME280;23794;48.234;8.344;2023-08-17T10:02:22;94455.56;;;25.95;62.64
37972;BME280;23794;48.234;8.344;2023-08-17T10:04:57;94455.97;;;26.14;62.03
37972;BME280;23794;48.234;8.344;2023-08-17T10:07:29;94451.94;;;26.20;62.34
37972;BME280;23794;48.234;8.344;2023-08-17T10:10:02;94461.09;;;26.15;62.29
37972;BME280;23794;48.234;8.344;2023-08-17T10:12:34;94461.63;;;26.19;63.31
37972;BME280;23794;48.234;8.344;2023-08-17T10:15:10;94447.84;;;26.48;64.23
37972;BME280;23794;48.234;8.344;2023-08-17T10:17:49;94451.31;;;26.75;60.56
37972;BME280;23794;48.234;8.344;2023-08-17T10:20:22;94457.47;;;26.84;59.11
37972;BME280;23794;48.234;8.344;2023-08-17T10:22:57;94455.44;;;26.85;56.43
37972;BME280;23794;48.234;8.344;2023-08-17T10:25:27;94458.31;;;26.96;57.09
37972;BME280;23794;48.234;8.344;2023-08-17T10:27:54;94446.16;;;27.17;56.70
37972;BME280;23794;48.234;8.344;2023-08-17T10:30:25;94461.72;;;27.12;54.06
37972;BME280;23794;48.234;8.344;2023-08-17T10:32:52;94465.88;;;27.28;57.29
37972;BME280;23794;48.234;8.344;2023-08-17T10:35:19;94463.63;;;27.49;55.31
37972;BME280;23794;48.234;8.344;2023-08-17T10:37:46;94457.16;;;27.20;55.71
37972;BME280;23794;48.234;8.344;2023-08-17T10:40:13;94462.00;;;26.71;58.45
37972;BME280;23794;48.234;8.344;2023-08-17T10:42:41;94453.72;;;26.18;59.65
37972;BME280;23794;48.234;8.344;2023-08-17T10:45:28;94464.03;;;25.74;64.79
37972;BME280;23794;48.234;8.344;2023-08-17T10:50:26;94478.78;;;25.48;65.48
37972;BME280;23794;48.234;8.344;2023-08-17T10:52:53;94476.22;;;25.45;65.24
37972;BME280;23794;48.234;8.344;2023-08-17T10:55:40;94469.34;;;25.46;64.09
37972;BME280;23794;48.234;8.344;2023-08-17T10:58:07;94483.69;;;25.27;61.64
37972;BME280;23794;48.234;8.344;2023-08-17T11:00:41;94473.72;;;25.26;62.89
37972;BME280;23794;48.234;8.344;2023-08-17T11:03:10;94480.88;;;25.27;60.77
37972;BME280;23794;48.234;8.344;2023-08-17T11:05:51;94478.91;;;25.13;62.85
37972;BME280;23794;48.234;8.344;2023-08-17T11:08:32;94474.69;;;24.82;55.32
37972;BME280;23794;48.234;8.344;2023-08-17T11:11:07;94468.56;;;24.62;59.30
37972;BME280;23794;48.234;8.344;2023-08-17T11:13:38;94479.13;;;24.53;60.67
37972;BME280;23794;48.234;8.344;2023-08-17T11:16:07;94480.97;;;24.41;60.52
37972;BME280;23794;48.234;8.344;2023-08-17T11:18:34;94491.75;;;24.33;62.48
37972;BME280;23794;48.234;8.344;2023-08-17T11:21:07;94491.47;;;24.31;58.75
37972;BME280;23794;48.234;8.344;2023-08-17T11:23:36;94479.41;;;24.25;62.15
37972;BME280;23794;48.234;8.344;2023-08-17T11:26:04;94479.91;;;24.23;61.43
37972;BME280;23794;48.234;8.344;2023-08-17T11:28:31;94506.84;;;24.21;61.78
37972;BME280;23794;48.234;8.344;2023-08-17T11:31:10;94506.75;;;24.00;62.33
37972;BME280;23794;48.234;8.344;2023-08-17T11:33:39;94507.13;;;23.78;63.03
37972;BME280;23794;48.234;8.344;2023-08-17T11:36:08;94484.25;;;23.64;62.52
37972;BME280;23794;48.234;8.344;2023-08-17T11:38:40;94469.84;;;23.42;61.82
37972;BME280;23794;48.234;8.344;2023-08-17T11:41:08;94460.84;;;23.23;64.34
37972;BME280;23794;48.234;8.344;2023-08-17T11:43:36;94449.81;;;23.04;62.58
37972;BME280;23794;48.234;8.344;2023-08-17T11:46:04;94460.59;;;22.96;64.21
37972;BME280;23794;48.234;8.344;2023-08-17T11:48:32;94451.47;;;22.86;64.84
37972;BME280;23794;48.234;8.344;2023-08-17T11:51:01;94446.19;;;22.88;64.01
37972;BME280;23794;48.234;8.344;2023-08-17T11:53:36;94446.84;;;22.83;66.00
37972;BME280;23794;48.234;8.344;2023-08-17T11:56:03;94469.22;;;22.74;65.94
37972;BME280;23794;48.234;8.344;2023-08-17T11:58:43;94481.22;;;22.65;65.28
37972;BME280;23794;48.234;8.344;2023-08-17T12:01:12;94481.94;;;22.51;66.12
37972;BME280;23794;48.234;8.344;2023-08-17T12:03:39;94473.75;;;22.47;65.90
37972;BME280;23794;48.234;8.344;2023-08-17T12:06:08;94464.28;;;22.45;67.35
37972;BME280;23794;48.234;8.344;2023-08-17T12:08:35;94469.97;;;22.50;66.34
37972;BME280;23794;48.234;8.344;2023-08-17T12:11:02;94466.78;;;22.42;65.01
37972;BME280;23794;48.234;8.344;2023-08-17T12:13:33;94472.84;;;22.41;66.16
37972;BME280;23794;48.234;8.344;2023-08-17T12:16:01;94484.75;;;22.41;65.61
37972;BME280;23794;48.234;8.344;2023-08-17T12:18:28;94493.28;;;22.47;66.57
37972;BME280;23794;48.234;8.344;2023-08-17T12:20:55;94484.69;;;22.60;65.95
37972;BME280;23794;48.234;8.344;2023-08-17T12:23:22;94481.91;;;22.84;64.70
37972;BME280;23794;48.234;8.344;2023-08-17T12:25:55;94466.00;;;23.39;62.77
37972;BME280;23794;48.234;8.344;2023-08-17T12:28:23;94467.75;;;24.26;59.46
37972;BME280;23794;48.234;8.344;2023-08-17T12:31:01;94459.41;;;25.24;58.46
37972;BME280;23794;48.234;8.344;2023-08-17T12:33:28;94455.44;;;26.10;56.86
37972;BME280;23794;48.234;8.344;2023-08-17T12:35:55;94442.50;;;26.56;53.96
37972;BME280;23794;48.234;8.344;2023-08-17T12:38:24;94433.59;;;27.06;54.02
37972;BME280;23794;48.234;8.344;2023-08-17T12:40:52;94429.34;;;27.28;50.41
37972;BME280;23794;48.234;8.344;2023-08-17T12:43:18;94423.59;;;27.77;53.71
37972;BME280;23794;48.234;8.344;2023-08-17T12:45:45;94415.88;;;28.51;50.02
37972;BME280;23794;48.234;8.344;2023-08-17T12:48:12;94410.94;;;28.75;48.32
37972;BME280;23794;48.234;8.344;2023-08-17T12:50:39;94406.31;;;29.42;48.29
37972;BME280;23794;48.234;8.344;2023-08-17T12:53:09;94407.34;;;29.44;42.56
37972;BME280;23794;48.234;8.344;2023-08-17T12:55:36;94406.72;;;29.69;42.24
37972;BME280;23794;48.234;8.344;2023-08-17T12:58:02;94401.75;;;29.80;42.31
37972;BME280;23794;48.234;8.344;2023-08-17T13:00:29;94406.41;;;30.14;43.70
37972;BME280;23794;48.234;8.344;2023-08-17T13:02:56;94404.06;;;30.12;38.00
37972;BME280;23794;48.234;8.344;2023-08-17T13:05:22;94411.13;;;29.94;40.34
37972;BME280;23794;48.234;8.344;2023-08-17T13:07:49;94412.22;;;30.22;44.00
37972;BME280;23794;48.234;8.344;2023-08-17T13:10:16;94409.41;;;30.22;42.15